DLH3EV EDDF-EDDB
Flight info
| Callsign | DLH3EV |
|---|---|
| Flight time | 0h 46m |
| Altitude | 31000 |
| Route | TOBAK3W/25C TOBAK N858 SWALM T201 TAMEB T278 KLF |
| Aircraft | A321/M-SDE3FGHIRWY/LB1 |
Departure
| Time | 2026-04-17 21:10 |
|---|---|
| Airport | Frankfurt Main Airport (EDDF) |
Arrival
| Time | 2026-04-17 21:56 |
|---|---|
| Airport | Berlin Brandenburg Airport (EDDB) |
| Time | Latitude | Longitude | Altitude | Speed | Heading |
|---|---|---|---|---|---|
| 2026-04-17 20:36 | 50.04899 | 8.56999 | 353 ft | 0 kts | 294° |
| 2026-04-17 20:54 | 50.04897 | 8.57007 | 352 ft | 2 kts | 294° |
| 2026-04-17 20:55 | 50.04890 | 8.57028 | 352 ft | 2 kts | 300° |
| 2026-04-17 20:55 | 50.04882 | 8.57048 | 352 ft | 2 kts | 306° |
| 2026-04-17 20:55 | 50.04874 | 8.57064 | 352 ft | 1 kts | 312° |
| 2026-04-17 20:55 | 50.04870 | 8.57081 | 352 ft | 1 kts | 249° |
| 2026-04-17 20:56 | 50.04876 | 8.57094 | 352 ft | 0 kts | 206° |
| 2026-04-17 20:56 | 50.04883 | 8.57098 | 352 ft | 1 kts | 204° |
| 2026-04-17 20:56 | 50.04884 | 8.57098 | 352 ft | 0 kts | 204° |
| 2026-04-17 20:58 | 50.04882 | 8.57097 | 352 ft | 0 kts | 204° |
| 2026-04-17 20:58 | 50.04871 | 8.57090 | 352 ft | 2 kts | 205° |
| 2026-04-17 20:59 | 50.04850 | 8.57074 | 352 ft | 4 kts | 205° |
| 2026-04-17 20:59 | 50.04816 | 8.57051 | 352 ft | 6 kts | 205° |
| 2026-04-17 20:59 | 50.04780 | 8.57025 | 352 ft | 4 kts | 205° |
| 2026-04-17 20:59 | 50.04758 | 8.57010 | 352 ft | 2 kts | 205° |
| 2026-04-17 21:00 | 50.04747 | 8.57001 | 352 ft | 1 kts | 205° |
| 2026-04-17 21:00 | 50.04738 | 8.56994 | 352 ft | 0 kts | 205° |
| 2026-04-17 21:00 | 50.04737 | 8.56994 | 352 ft | 0 kts | 205° |
| 2026-04-17 21:01 | 50.04731 | 8.56990 | 352 ft | 1 kts | 205° |
| 2026-04-17 21:01 | 50.04713 | 8.56977 | 352 ft | 3 kts | 205° |
| 2026-04-17 21:02 | 50.04685 | 8.56957 | 352 ft | 5 kts | 205° |
| 2026-04-17 21:02 | 50.04647 | 8.56930 | 352 ft | 6 kts | 203° |
| 2026-04-17 21:02 | 50.04610 | 8.56912 | 352 ft | 3 kts | 195° |
| 2026-04-17 21:02 | 50.04592 | 8.56905 | 352 ft | 2 kts | 194° |
| 2026-04-17 21:03 | 50.04571 | 8.56897 | 352 ft | 4 kts | 194° |
| 2026-04-17 21:03 | 50.04516 | 8.56877 | 352 ft | 10 kts | 194° |
| 2026-04-17 21:03 | 50.04443 | 8.56853 | 352 ft | 10 kts | 189° |
| 2026-04-17 21:03 | 50.04370 | 8.56835 | 352 ft | 11 kts | 191° |
| 2026-04-17 21:04 | 50.04295 | 8.56840 | 352 ft | 11 kts | 141° |
| 2026-04-17 21:04 | 50.04291 | 8.56955 | 352 ft | 12 kts | 68° |
| 2026-04-17 21:04 | 50.04322 | 8.57081 | 352 ft | 12 kts | 70° |
| 2026-04-17 21:04 | 50.04355 | 8.57217 | 352 ft | 13 kts | 70° |
| 2026-04-17 21:05 | 50.04388 | 8.57354 | 352 ft | 12 kts | 70° |
| 2026-04-17 21:05 | 50.04418 | 8.57481 | 352 ft | 12 kts | 70° |
| 2026-04-17 21:05 | 50.04448 | 8.57604 | 352 ft | 10 kts | 70° |
| 2026-04-17 21:05 | 50.04467 | 8.57684 | 352 ft | 6 kts | 69° |
| 2026-04-17 21:06 | 50.04484 | 8.57756 | 352 ft | 7 kts | 70° |
| 2026-04-17 21:06 | 50.04504 | 8.57839 | 352 ft | 7 kts | 70° |
| 2026-04-17 21:06 | 50.04523 | 8.57917 | 352 ft | 8 kts | 70° |
| 2026-04-17 21:06 | 50.04543 | 8.58003 | 352 ft | 7 kts | 74° |
| 2026-04-17 21:07 | 50.04516 | 8.58075 | 352 ft | 9 kts | 162° |
| 2026-04-17 21:07 | 50.04453 | 8.58109 | 352 ft | 10 kts | 160° |
| 2026-04-17 21:07 | 50.04390 | 8.58134 | 352 ft | 8 kts | 199° |
| 2026-04-17 21:07 | 50.04371 | 8.58095 | 352 ft | 0 kts | 250° |
| 2026-04-17 21:09 | 50.04368 | 8.58083 | 352 ft | 8 kts | 250° |
| 2026-04-17 21:09 | 50.04268 | 8.57661 | 352 ft | 80 kts | 250° |
| 2026-04-17 21:09 | 50.03989 | 8.56497 | 353 ft | 148 kts | 250° |
| 2026-04-17 21:09 | 50.03589 | 8.54838 | 742 ft | 170 kts | 250° |
| 2026-04-17 21:10 | 50.03188 | 8.53126 | 1462 ft | 171 kts | 250° |
| 2026-04-17 21:10 | 50.02756 | 8.51414 | 2165 ft | 173 kts | 243° |
| 2026-04-17 21:10 | 50.01920 | 8.50057 | 2620 ft | 185 kts | 210° |
| 2026-04-17 21:10 | 50.00643 | 8.49451 | 3032 ft | 202 kts | 186° |
| 2026-04-17 21:11 | 49.99195 | 8.49295 | 3465 ft | 218 kts | 184° |
| 2026-04-17 21:11 | 49.97622 | 8.49130 | 3827 ft | 240 kts | 184° |
| 2026-04-17 21:11 | 49.95880 | 8.48729 | 4101 ft | 261 kts | 199° |
| 2026-04-17 21:11 | 49.94327 | 8.47317 | 4351 ft | 265 kts | 221° |
| 2026-04-17 21:12 | 49.92972 | 8.45307 | 4824 ft | 273 kts | 225° |
| 2026-04-17 21:12 | 49.91655 | 8.43269 | 5784 ft | 271 kts | 225° |
| 2026-04-17 21:12 | 49.90355 | 8.41189 | 6735 ft | 271 kts | 231° |
| 2026-04-17 21:12 | 49.89575 | 8.38548 | 7566 ft | 275 kts | 261° |
| 2026-04-17 21:13 | 49.89569 | 8.35598 | 8428 ft | 276 kts | 273° |
| 2026-04-17 21:13 | 49.89684 | 8.32658 | 9254 ft | 279 kts | 272° |
| 2026-04-17 21:13 | 49.89791 | 8.29658 | 10058 ft | 281 kts | 272° |
| 2026-04-17 21:13 | 49.89926 | 8.26633 | 10744 ft | 287 kts | 277° |
| 2026-04-17 21:14 | 49.90622 | 8.23655 | 11098 ft | 306 kts | 298° |
| 2026-04-17 21:14 | 49.91951 | 8.20993 | 11408 ft | 326 kts | 316° |
| 2026-04-17 21:14 | 49.93920 | 8.19079 | 11709 ft | 346 kts | 336° |
| 2026-04-17 21:14 | 49.96336 | 8.18348 | 12133 ft | 361 kts | 358° |
| 2026-04-17 21:15 | 49.98797 | 8.19075 | 12786 ft | 368 kts | 19° |
| 2026-04-17 21:15 | 50.01161 | 8.20728 | 13482 ft | 371 kts | 23° |
| 2026-04-17 21:15 | 50.03503 | 8.22427 | 14109 ft | 376 kts | 23° |
| 2026-04-17 21:15 | 50.05858 | 8.24123 | 14758 ft | 379 kts | 23° |
| 2026-04-17 21:16 | 50.08256 | 8.25827 | 15407 ft | 382 kts | 22° |
| 2026-04-17 21:16 | 50.10691 | 8.27546 | 16064 ft | 385 kts | 22° |
| 2026-04-17 21:16 | 50.13135 | 8.29262 | 16683 ft | 388 kts | 22° |
| 2026-04-17 21:16 | 50.15612 | 8.31000 | 17294 ft | 391 kts | 22° |
| 2026-04-17 21:17 | 50.18104 | 8.32748 | 17887 ft | 394 kts | 22° |
| 2026-04-17 21:17 | 50.20593 | 8.34497 | 18465 ft | 397 kts | 22° |
| 2026-04-17 21:17 | 50.23116 | 8.36270 | 19035 ft | 400 kts | 22° |
| 2026-04-17 21:17 | 50.25662 | 8.38062 | 19598 ft | 402 kts | 22° |
| 2026-04-17 21:18 | 50.28133 | 8.40058 | 20126 ft | 407 kts | 28° |
| 2026-04-17 21:18 | 50.30508 | 8.42527 | 20669 ft | 411 kts | 34° |
| 2026-04-17 21:18 | 50.32708 | 8.45358 | 21198 ft | 414 kts | 38° |
| 2026-04-17 21:18 | 50.34892 | 8.48390 | 21702 ft | 418 kts | 39° |
| 2026-04-17 21:19 | 50.37020 | 8.51391 | 22170 ft | 421 kts | 39° |
| 2026-04-17 21:19 | 50.39225 | 8.54493 | 22639 ft | 424 kts | 39° |
| 2026-04-17 21:19 | 50.41428 | 8.57574 | 23099 ft | 427 kts | 39° |
| 2026-04-17 21:19 | 50.43620 | 8.60634 | 23563 ft | 429 kts | 39° |
| 2026-04-17 21:20 | 50.45875 | 8.63727 | 24016 ft | 431 kts | 37° |
| 2026-04-17 21:20 | 50.48193 | 8.66772 | 24459 ft | 433 kts | 37° |
| 2026-04-17 21:20 | 50.50500 | 8.69777 | 24885 ft | 435 kts | 37° |
| 2026-04-17 21:20 | 50.52835 | 8.72832 | 25306 ft | 438 kts | 38° |
| 2026-04-17 21:21 | 50.55139 | 8.76002 | 25718 ft | 441 kts | 42° |
| 2026-04-17 21:21 | 50.57195 | 8.79583 | 26117 ft | 445 kts | 49° |
| 2026-04-17 21:21 | 50.58965 | 8.83595 | 26497 ft | 450 kts | 57° |
| 2026-04-17 21:21 | 50.60492 | 8.87814 | 26874 ft | 452 kts | 59° |
| 2026-04-17 21:22 | 50.61985 | 8.92157 | 27242 ft | 455 kts | 59° |
| 2026-04-17 21:22 | 50.63496 | 8.96594 | 27626 ft | 456 kts | 59° |
| 2026-04-17 21:22 | 50.64979 | 9.00934 | 28119 ft | 455 kts | 59° |
| 2026-04-17 21:22 | 50.66494 | 9.05338 | 28666 ft | 452 kts | 59° |
| 2026-04-17 21:23 | 50.67965 | 9.09602 | 29169 ft | 450 kts | 59° |
| 2026-04-17 21:23 | 50.69440 | 9.13989 | 29641 ft | 450 kts | 60° |
| 2026-04-17 21:23 | 50.70736 | 9.18422 | 30016 ft | 452 kts | 64° |
| 2026-04-17 21:23 | 50.71877 | 9.23065 | 30355 ft | 454 kts | 68° |
| 2026-04-17 21:24 | 50.72823 | 9.27799 | 30689 ft | 457 kts | 71° |
| 2026-04-17 21:24 | 50.73603 | 9.32637 | 31013 ft | 459 kts | 73° |
| 2026-04-17 21:24 | 50.74343 | 9.37569 | 31188 ft | 461 kts | 73° |
| 2026-04-17 21:24 | 50.75064 | 9.42452 | 31190 ft | 461 kts | 73° |
| 2026-04-17 21:25 | 50.76511 | 9.52219 | 31196 ft | 461 kts | 73° |
| 2026-04-17 21:25 | 50.77976 | 9.62078 | 31196 ft | 460 kts | 73° |
| 2026-04-17 21:26 | 50.79427 | 9.71870 | 31191 ft | 460 kts | 74° |
| 2026-04-17 21:26 | 50.80871 | 9.81657 | 31190 ft | 460 kts | 74° |
| 2026-04-17 21:27 | 50.82312 | 9.91515 | 31189 ft | 460 kts | 74° |
| 2026-04-17 21:27 | 50.83615 | 10.01427 | 31191 ft | 462 kts | 78° |
| 2026-04-17 21:28 | 50.84163 | 10.11561 | 31188 ft | 465 kts | 86° |
| 2026-04-17 21:28 | 50.83875 | 10.21758 | 31188 ft | 468 kts | 92° |
| 2026-04-17 21:29 | 50.83508 | 10.31961 | 31175 ft | 463 kts | 81° |
| 2026-04-17 21:29 | 50.84114 | 10.36986 | 31184 ft | 458 kts | 70° |
| 2026-04-17 21:29 | 50.85275 | 10.41605 | 31186 ft | 452 kts | 59° |
| 2026-04-17 21:30 | 50.88528 | 10.50122 | 31187 ft | 451 kts | 53° |
| 2026-04-17 21:30 | 50.91839 | 10.58492 | 31185 ft | 451 kts | 54° |
| 2026-04-17 21:31 | 50.95137 | 10.66966 | 31185 ft | 452 kts | 54° |
| 2026-04-17 21:31 | 50.98414 | 10.75472 | 31186 ft | 452 kts | 54° |
| 2026-04-17 21:32 | 51.01693 | 10.84032 | 31190 ft | 451 kts | 54° |
| 2026-04-17 21:32 | 51.04932 | 10.92519 | 31196 ft | 451 kts | 54° |
| 2026-04-17 21:33 | 51.08173 | 11.01040 | 31204 ft | 451 kts | 54° |
| 2026-04-17 21:33 | 51.11407 | 11.09579 | 31208 ft | 451 kts | 54° |
| 2026-04-17 21:34 | 51.14626 | 11.18099 | 31185 ft | 451 kts | 54° |
| 2026-04-17 21:34 | 51.17841 | 11.26642 | 30570 ft | 448 kts | 54° |
| 2026-04-17 21:35 | 51.19424 | 11.30858 | 30168 ft | 444 kts | 54° |
| 2026-04-17 21:35 | 51.20989 | 11.35032 | 29788 ft | 442 kts | 54° |
| 2026-04-17 21:35 | 51.22577 | 11.39271 | 29391 ft | 443 kts | 54° |
| 2026-04-17 21:35 | 51.24149 | 11.43472 | 29000 ft | 444 kts | 54° |
| 2026-04-17 21:36 | 51.25743 | 11.47740 | 28605 ft | 446 kts | 55° |
| 2026-04-17 21:36 | 51.27322 | 11.51980 | 28214 ft | 447 kts | 55° |
| 2026-04-17 21:36 | 51.28896 | 11.56214 | 27827 ft | 447 kts | 55° |
| 2026-04-17 21:36 | 51.30475 | 11.60472 | 27439 ft | 448 kts | 54° |
| 2026-04-17 21:37 | 51.32046 | 11.64710 | 27063 ft | 445 kts | 55° |
| 2026-04-17 21:37 | 51.33641 | 11.69025 | 26732 ft | 444 kts | 56° |
| 2026-04-17 21:37 | 51.35192 | 11.73228 | 26349 ft | 442 kts | 56° |
| 2026-04-17 21:37 | 51.36734 | 11.77415 | 25964 ft | 439 kts | 56° |
| 2026-04-17 21:38 | 51.38282 | 11.81619 | 25579 ft | 437 kts | 56° |
| 2026-04-17 21:38 | 51.39814 | 11.85789 | 25187 ft | 435 kts | 56° |
| 2026-04-17 21:38 | 51.41334 | 11.89930 | 24806 ft | 432 kts | 56° |
| 2026-04-17 21:38 | 51.42843 | 11.94047 | 24423 ft | 431 kts | 56° |
| 2026-04-17 21:39 | 51.44343 | 11.98154 | 24037 ft | 428 kts | 56° |
| 2026-04-17 21:39 | 51.45838 | 12.02249 | 23654 ft | 427 kts | 56° |
| 2026-04-17 21:39 | 51.47319 | 12.06314 | 23273 ft | 424 kts | 56° |
| 2026-04-17 21:39 | 51.48803 | 12.10393 | 22879 ft | 422 kts | 56° |
| 2026-04-17 21:40 | 51.50274 | 12.14442 | 22495 ft | 419 kts | 56° |
| 2026-04-17 21:40 | 51.51735 | 12.18471 | 22105 ft | 416 kts | 56° |
| 2026-04-17 21:40 | 51.53173 | 12.22442 | 21726 ft | 414 kts | 57° |
| 2026-04-17 21:40 | 51.54610 | 12.26414 | 21359 ft | 412 kts | 57° |
| 2026-04-17 21:41 | 51.56027 | 12.30337 | 20969 ft | 409 kts | 57° |
| 2026-04-17 21:41 | 51.57460 | 12.34312 | 20610 ft | 407 kts | 57° |
| 2026-04-17 21:41 | 51.58857 | 12.38193 | 20224 ft | 406 kts | 57° |
| 2026-04-17 21:41 | 51.60270 | 12.42128 | 19725 ft | 403 kts | 57° |
| 2026-04-17 21:42 | 51.61654 | 12.45984 | 19228 ft | 399 kts | 57° |
| 2026-04-17 21:42 | 51.63014 | 12.49782 | 18730 ft | 395 kts | 57° |
| 2026-04-17 21:42 | 51.64383 | 12.53610 | 18220 ft | 391 kts | 57° |
| 2026-04-17 21:42 | 51.65726 | 12.57369 | 17721 ft | 388 kts | 57° |
| 2026-04-17 21:43 | 51.67052 | 12.61090 | 17217 ft | 385 kts | 57° |
| 2026-04-17 21:43 | 51.68373 | 12.64797 | 16725 ft | 382 kts | 57° |
| 2026-04-17 21:43 | 51.69693 | 12.68509 | 16220 ft | 379 kts | 58° |
| 2026-04-17 21:43 | 51.71151 | 12.71946 | 15715 ft | 372 kts | 44° |
| 2026-04-17 21:44 | 51.73222 | 12.74292 | 15231 ft | 364 kts | 26° |
| 2026-04-17 21:44 | 51.75482 | 12.76100 | 14744 ft | 362 kts | 24° |
| 2026-04-17 21:44 | 51.77756 | 12.77874 | 14248 ft | 360 kts | 24° |
| 2026-04-17 21:44 | 51.79966 | 12.79653 | 13766 ft | 359 kts | 25° |
| 2026-04-17 21:45 | 51.82188 | 12.81497 | 13278 ft | 356 kts | 25° |
| 2026-04-17 21:45 | 51.84366 | 12.83345 | 12789 ft | 351 kts | 26° |
| 2026-04-17 21:45 | 51.86463 | 12.85147 | 12293 ft | 340 kts | 26° |
| 2026-04-17 21:45 | 51.88509 | 12.86925 | 11792 ft | 330 kts | 26° |
| 2026-04-17 21:46 | 51.90505 | 12.88667 | 11293 ft | 320 kts | 26° |
| 2026-04-17 21:46 | 51.92429 | 12.90352 | 10794 ft | 312 kts | 26° |
| 2026-04-17 21:46 | 51.94287 | 12.91983 | 10295 ft | 305 kts | 26° |
| 2026-04-17 21:46 | 51.96127 | 12.93597 | 9797 ft | 298 kts | 26° |
| 2026-04-17 21:47 | 51.97934 | 12.95211 | 9290 ft | 292 kts | 27° |
| 2026-04-17 21:47 | 51.99659 | 12.96810 | 8791 ft | 287 kts | 28° |
| 2026-04-17 21:47 | 52.01366 | 12.98406 | 8291 ft | 282 kts | 28° |
| 2026-04-17 21:47 | 52.03051 | 12.99981 | 7789 ft | 278 kts | 28° |
| 2026-04-17 21:48 | 52.04695 | 13.01518 | 7353 ft | 271 kts | 28° |
| 2026-04-17 21:48 | 52.06311 | 13.03031 | 7148 ft | 265 kts | 28° |
| 2026-04-17 21:48 | 52.07907 | 13.04524 | 6896 ft | 264 kts | 28° |
| 2026-04-17 21:48 | 52.09481 | 13.05996 | 6650 ft | 264 kts | 28° |
| 2026-04-17 21:49 | 52.11078 | 13.07489 | 6400 ft | 263 kts | 28° |
| 2026-04-17 21:49 | 52.12658 | 13.08968 | 6149 ft | 263 kts | 28° |
| 2026-04-17 21:49 | 52.14246 | 13.10454 | 5815 ft | 263 kts | 28° |
| 2026-04-17 21:49 | 52.15816 | 13.11925 | 5434 ft | 258 kts | 28° |
| 2026-04-17 21:50 | 52.17349 | 13.13364 | 5052 ft | 253 kts | 29° |
| 2026-04-17 21:50 | 52.18863 | 13.14788 | 4682 ft | 248 kts | 29° |
| 2026-04-17 21:50 | 52.20318 | 13.16156 | 4356 ft | 242 kts | 29° |
| 2026-04-17 21:50 | 52.21774 | 13.17528 | 4018 ft | 238 kts | 30° |
| 2026-04-17 21:51 | 52.23189 | 13.18861 | 3724 ft | 233 kts | 30° |
| 2026-04-17 21:51 | 52.24564 | 13.20157 | 3465 ft | 226 kts | 30° |
| 2026-04-17 21:51 | 52.25906 | 13.21423 | 3207 ft | 220 kts | 31° |
| 2026-04-17 21:51 | 52.27216 | 13.22659 | 3003 ft | 212 kts | 31° |
| 2026-04-17 21:52 | 52.28453 | 13.23829 | 3070 ft | 204 kts | 32° |
| 2026-04-17 21:52 | 52.29402 | 13.25388 | 2971 ft | 189 kts | 58° |
| 2026-04-17 21:52 | 52.29956 | 13.27277 | 2724 ft | 184 kts | 68° |
| 2026-04-17 21:52 | 52.30416 | 13.29205 | 2462 ft | 178 kts | 70° |
| 2026-04-17 21:53 | 52.30847 | 13.31092 | 2254 ft | 174 kts | 70° |
| 2026-04-17 21:53 | 52.31253 | 13.32844 | 1989 ft | 159 kts | 71° |
| 2026-04-17 21:53 | 52.31623 | 13.34454 | 1747 ft | 144 kts | 71° |
| 2026-04-17 21:53 | 52.31970 | 13.35965 | 1549 ft | 142 kts | 71° |
| 2026-04-17 21:54 | 52.32330 | 13.37473 | 1363 ft | 140 kts | 70° |
| 2026-04-17 21:54 | 52.32679 | 13.38918 | 1162 ft | 137 kts | 70° |
| 2026-04-17 21:54 | 52.33027 | 13.40396 | 1014 ft | 138 kts | 70° |
| 2026-04-17 21:54 | 52.33364 | 13.41839 | 833 ft | 137 kts | 69° |
| 2026-04-17 21:55 | 52.33702 | 13.43276 | 637 ft | 133 kts | 69° |
| 2026-04-17 21:55 | 52.34041 | 13.44696 | 466 ft | 133 kts | 68° |
| 2026-04-17 21:55 | 52.34370 | 13.46095 | 295 ft | 130 kts | 68° |
| 2026-04-17 21:55 | 52.34689 | 13.47448 | 167 ft | 123 kts | 68° |
| 2026-04-17 21:56 | 52.34949 | 13.48545 | 166 ft | 79 kts | 68° |
| 2026-04-17 21:56 | 52.35067 | 13.49039 | 166 ft | 20 kts | 64° |
| 2026-04-17 21:56 | 52.35133 | 13.49207 | 166 ft | 17 kts | 51° |
| 2026-04-17 21:56 | 52.35220 | 13.49346 | 166 ft | 17 kts | 38° |
| 2026-04-17 21:57 | 52.35313 | 13.49469 | 166 ft | 17 kts | 38° |
| 2026-04-17 21:57 | 52.35411 | 13.49596 | 166 ft | 18 kts | 38° |
| 2026-04-17 21:57 | 52.35473 | 13.49765 | 166 ft | 17 kts | 68° |
| 2026-04-17 21:57 | 52.35519 | 13.49957 | 166 ft | 18 kts | 68° |
| 2026-04-17 21:58 | 52.35563 | 13.50141 | 166 ft | 15 kts | 69° |
| 2026-04-17 21:58 | 52.35601 | 13.50303 | 166 ft | 15 kts | 68° |
| 2026-04-17 21:58 | 52.35642 | 13.50473 | 166 ft | 16 kts | 68° |
| 2026-04-17 21:58 | 52.35683 | 13.50645 | 166 ft | 16 kts | 68° |
| 2026-04-17 21:59 | 52.35725 | 13.50809 | 166 ft | 12 kts | 48° |
| 2026-04-17 21:59 | 52.35810 | 13.50806 | 166 ft | 13 kts | 335° |
| 2026-04-17 21:59 | 52.35902 | 13.50743 | 166 ft | 15 kts | 338° |
| 2026-04-17 21:59 | 52.36003 | 13.50680 | 166 ft | 15 kts | 339° |
| 2026-04-17 22:00 | 52.36109 | 13.50612 | 166 ft | 16 kts | 338° |
| 2026-04-17 22:00 | 52.36216 | 13.50545 | 166 ft | 10 kts | 338° |
| 2026-04-17 22:00 | 52.36251 | 13.50544 | 166 ft | 5 kts | 50° |
| 2026-04-17 22:00 | 52.36272 | 13.50608 | 166 ft | 4 kts | 68° |
| 2026-04-17 22:01 | 52.36282 | 13.50649 | 166 ft | 0 kts | 68° |